Center Junction, IA

3:45 PM CDT on June 28, 2017 (GMT -0500)
Wilson Acreage | | Change Station
Active Advisory: Tornado Watch

Elev 229 ft 42.06 °N, 91.19 °W | Updated 6 seconds ago

Overcast
Overcast
81.7 °F
Feels Like 86 °F
N
8.0
Wind Variable Wind from SSW

Today
High -- | Low -- °F
--% Chance of Precip.
Yesterday
High -- | Low -- °F
Precip. -- in
Pressure 29.73 in
Visibility 10.0 miles
Clouds Mostly Cloudy 6000 ft
Heat Index 86 °F
Dew Point 70 °F
Humidity 70%
Rainfall 0.76 in
Snow Depth Not available.
5:30 AM 8:44 PM
Waxing Crescent, 28% visible
METAR KMXO 282035Z AUTO 19014G20KT 10SM BKN060 27/21 A2973 RMK AO2
Pressure 29.73 in
Visibility 10.0 miles
Clouds Mostly Cloudy 6000 ft
Heat Index 86 °F
Dew Point 70 °F
Humidity 70%
Rainfall 0.76 in
Snow Depth Not available.
5:30 AM 8:44 PM
Waxing Crescent, 28% visible
METAR KMXO 282035Z AUTO 19014G20KT 10SM BKN060 27/21 A2973 RMK AO2

Get Your Daily Forecast Email!

Thanks for signing up!

Be on the lookout for a verification email in your inbox.

You'll start receiving severe weather alerts in your inbox..

×

10-Day Weather Forecast

Almanac

Astronomy

Jun. 28, 2017 Rise Set
Actual Time
Civil Twilight
Nautical Twilight
Astronomical Twilight
Moon
Length of Visible Light
Length of Day
Tomorrow will be .
, % of the Moon is Illuminated

Today's Extremes

State Highs State Lows

Community

WunderPhotos

Category 6

Welcome to Category 6. This is the collective home for Weather Underground's featured writeups by Dr. Jeff Masters (right), Bob Henson (left), Chris Burt, and other regular contributors.

Nearby

Air Quality

  Air Quality AQ Index Pollutant
Not available.

Snow Depth

Station Depth Elevation

Earthquake Activity

City Distance Mag. Time & Date
Minimum magnitude displayed is 2.5.

Coastal Water Temperatures

Place Temperature

Stations

Nearby Weather Stations

Station Location Temp. Windchill Dew Point Humidity Wind Precip. Elev Updated Type
                   

Watches & Warnings

Tornado Watch
Issued: 3:24 PM CDT Jun. 28, 2017 – National Weather Service

Tornado Watch 375 remains in effect until 1000 PM CDT for the
following locations


IA
. Iowa counties included are

Adair Adams Appanoose
Audubon Benton Black Hawk
Boone Bremer Buchanan
Butler Calhoun Carroll
Cass Cedar Chickasaw
Clarke Clayton Clinton
Dallas Davis Decatur
Delaware Des Moines Dubuque
Fayette Floyd Franklin
Fremont Greene Grundy
Guthrie Hamilton Hardin
Henry Humboldt Iowa
Jackson Jasper Jefferson
Johnson Jones Keokuk
Lee Linn Louisa
Lucas Madison Mahaska
Marion Marshall Mills
Monroe Montgomery Muscatine
Page Polk Pottawattamie
Poweshiek Ringgold Scott
Shelby story Tama
Taylor Union Van Buren
Wapello Warren Washington
Wayne Webster Wright